San Juan, PR

6:44 PM AST on February 12, 2016 (GMT -0400)
Luis Munoz Marin International | | Change Station
CLOSE
Current Station
Airport
Location: San Juan,
Elevation: 7 ft
Nearby Weather Stations
Active Advisory: Coastal Hazard Statement

Elev 7 ft 18.43 °N, 66.01 °W | Updated 48 minutes ago

Scattered Clouds
Scattered Clouds
78 °F
Feels Like 78 °F
N
16
Wind Variable Wind from ENE

Today
High -- | Low -- °F
--% Chance of Precip.
Yesterday
High -- | Low -- °F
Precip. -- in
Pressure 30.06 in
Visibility 10.0 miles
Clouds Scattered Clouds 2800 ft
Dew Point 71 °F
Humidity 79%
Rainfall 0.14 in
Snow Depth Not available.
6:53 AM 6:23 PM
Waxing Crescent, 24% visible
METAR TJSJ 122156Z 07014KT 10SM SCT028 26/22 A3006 RMK AO2 SLP178 T02560217
Pressure 30.06 in
Visibility 10.0 miles
Clouds Scattered Clouds 2800 ft
Dew Point 71 °F
Humidity 79%
Rainfall 0.14 in
Snow Depth Not available.
6:53 AM 6:23 PM
Waxing Crescent, 24% visible
METAR TJSJ 122156Z 07014KT 10SM SCT028 26/22 A3006 RMK AO2 SLP178 T02560217

10-Day Weather Forecast

Almanac

Astronomy

Feb. 12, 2016 Rise Set
Actual Time
Civil Twilight
Nautical Twilight
Astronomical Twilight
Moon
Length of Visible Light
Length of Day
Tomorrow will be .
, % of the Moon is Illuminated

Today's Extremes

State Highs State Lows

Community

WunderPhotos

Upload Photos

1,892,424 photos uploaded!

WunderBlog® & News

Nearby

Air Quality

  Air Quality AQ Index Pollutant
Not available.

Snow Depth

Station Depth Elevation

Earthquake Activity

City Distance Mag. Time & Date
Minimum magnitude displayed is 2.5.

Coastal Water Temperatures

Place Temperature

Stations

Nearby Weather Stations

Station Location Temp. Windchill Dew Point Humidity Wind Precip. Elev Updated Type
                   

Watches & Warnings

Coastal Hazard Statement
Issued: 5:04 PM AST Feb. 12, 2016 – National Weather Service

... High rip current risk remains in effect through late tonight...

* location... north facing beaches of Puerto Rico and Culebra.

* Timing... through at least late tonight.

* Impacts... large breaking waves will create strong rip currents.

Precautionary/preparedness actions...

There is a high risk of rip currents.

Rip currents are powerful channels of water flowing quickly away
from shore... which occur most often at low spots or breaks in The
Sandbar and in the vicinity of structures such as groins...
jetties and piers. Heed the advice of lifeguards... beach patrol
flags and signs.

If you become caught in a rip current... Yell for help. Remain
calm... do not exhaust yourself and stay afloat while waiting for
help. If you have to swim out of a rip current... swim parallel to
shore and back toward the beach when possible. Do not attempt to
swim directly against a rip current as you will tire quickly.